Okmulgee, Oklahoma
Current Conditions -  °F | °C
As of 6:55 AM on Friday 24 Oct 2014 (Local Time) from KOKM Reporting Station
Scattered Clouds Scattered Clouds  
Wind Chill: 56°   Ceiling: Unl
Heat Index: 56°   Visibility: 10mi
Dew Point: 54°   Wind: 10mph
Humidity: 91%   Direction: 200°SSW
Pressure: 30.11"   Gusts: NA
Location:  35.62°N, 95.97°W
Report Text: KOKM 241155Z AUTO 20009KT 10SM SCT050 14/12 A3011 RMK AO2 70017 T01360121 10140 20122
Loading
Personal Weather Stations






























Interactive Weather Map
Tropical Storm Tracking
New forecast layout! Learn more

10-Day Weather Forecast

Advertisements
Track Severe Weather on mobile